Time;durP1;ratioP1;P1;durP2;ratioP2;P2;SDS_P1;SDS_P2;PMS_P1;PMS_P2;Temp;Humidity;BMP_temperature;BMP_pressure;BME280_temperature;BME280_humidity;BME280_pressure;Samples;Min_cycle;Max_cycle;Signal;HPM_P1;HPM_P2
2023/06/29 08:14:38;;;;;;;9.10;3.40;;;;;;;19.34;100.00;98584.85;104634;1291;616895;-63
2023/06/29 08:17:05;;;;;;;6.30;3.80;;;;;;;19.80;100.00;98583.17;104091;1266;61525;-64
2023/06/29 08:19:34;;;;;;;3.70;3.40;;;;;;;19.94;100.00;98578.62;104286;1266;60609;-63
2023/06/29 08:22:00;;;;;;;5.30;3.80;;;;;;;19.89;100.00;98578.34;104218;1266;72449;-64
2023/06/29 08:24:27;;;;;;;4.10;3.20;;;;;;;20.13;100.00;98574.76;103771;1268;70319;-64
2023/06/29 08:26:54;;;;;;;3.60;3.30;;;;;;;20.36;100.00;98569.36;103838;1266;152577;-62
2023/06/29 08:29:21;;;;;;;3.30;3.10;;;;;;;20.40;100.00;98561.72;104174;1272;61798;-64
2023/06/29 08:31:48;;;;;;;4.00;3.00;;;;;;;20.40;100.00;98562.72;104123;1265;60044;-64
2023/06/29 08:34:15;;;;;;;3.00;2.70;;;;;;;20.49;100.00;98567.54;103956;1268;72185;-63
2023/06/29 08:36:42;;;;;;;4.10;2.80;;;;;;;20.34;100.00;98565.68;104117;1263;69412;-64
2023/06/29 08:39:09;;;;;;;10.90;3.20;;;;;;;19.91;100.00;98575.72;104021;1267;72486;-67
2023/06/29 08:41:36;;;;;;;4.50;3.10;;;;;;;19.61;100.00;98581.92;104286;1268;61785;-63
2023/06/29 08:44:04;;;;;;;3.00;2.70;;;;;;;19.55;100.00;98587.33;104104;1266;59890;-63
2023/06/29 08:46:32;;;;;;;3.10;2.90;;;;;;;19.58;100.00;98583.77;104370;1264;73384;-65
2023/06/29 08:49:00;;;;;;;3.10;2.90;;;;;;;19.48;100.00;98585.88;103650;1272;69643;-63
2023/06/29 08:51:29;;;;;;;3.70;3.20;;;;;;;19.56;100.00;98589.90;103913;1264;73824;-64
2023/06/29 08:53:56;;;;;;;3.70;3.40;;;;;;;19.70;100.00;98583.86;103543;1268;61676;-63
2023/06/29 08:56:23;;;;;;;3.40;3.20;;;;;;;19.79;100.00;98583.03;103858;1267;60790;-62
2023/06/29 08:58:50;;;;;;;4.50;3.40;;;;;;;19.86;100.00;98579.30;103864;1280;73397;-62
2023/06/29 09:01:17;;;;;;;4.00;3.00;;;;;;;19.90;100.00;98577.52;103893;1272;69264;-65
2023/06/29 09:03:44;;;;;;;3.20;3.00;;;;;;;19.99;100.00;98574.70;103604;1269;73003;-66
2023/06/29 09:06:14;;;;;;;3.50;2.80;;;;;;;19.83;100.00;98574.67;103949;1264;62080;-63
2023/06/29 09:08:41;;;;;;;3.90;2.90;;;;;;;19.75;100.00;98575.05;103894;1268;59949;-62
2023/06/29 09:11:08;;;;;;;3.00;2.80;;;;;;;19.49;100.00;98576.16;103916;1266;72780;-61
2023/06/29 09:13:38;;;;;;;2.90;2.70;;;;;;;19.30;100.00;98574.95;107035;1265;70555;-64
2023/06/29 09:16:05;;;;;;;4.70;2.90;;;;;;;19.42;100.00;98578.75;104799;1270;71406;-62
2023/06/29 09:18:32;;;;;;;3.30;3.00;;;;;;;19.43;100.00;98582.08;103955;1282;61801;-62
2023/06/29 09:20:59;;;;;;;3.30;3.10;;;;;;;19.67;100.00;98576.20;104369;1266;60067;-64
2023/06/29 09:23:27;;;;;;;3.20;3.00;;;;;;;19.80;100.00;98581.02;104203;1269;72686;-63
2023/06/29 09:25:55;;;;;;;3.40;3.10;;;;;;;19.89;100.00;98574.63;104205;1266;69310;-63
2023/06/29 09:28:23;;;;;;;4.60;3.20;;;;;;;19.84;100.00;98575.28;103998;1268;72441;-62
2023/06/29 09:30:50;;;;;;;4.60;3.00;;;;;;;19.98;100.00;98567.55;103897;1266;61751;-62
2023/06/29 09:33:19;;;;;;;3.40;3.00;;;;;;;20.22;100.00;98562.77;103761;1266;59942;-66
2023/06/29 09:35:47;;;;;;;3.80;3.40;;;;;;;20.35;100.00;98560.44;103817;1266;72884;-64
2023/06/29 09:38:14;;;;;;;6.70;3.50;;;;;;;20.42;100.00;98559.37;103978;1267;69376;-67
2023/06/29 09:41:02;;;;;;;4.30;3.00;;;;;;;20.57;100.00;98558.29;103927;1266;74814;-63
2023/06/29 09:43:29;;;;;;;4.50;3.50;;;;;;;20.67;100.00;98554.98;104114;1265;61734;-63
2023/06/29 09:46:02;;;;;;;4.30;3.20;;;;;;;20.72;100.00;98556.55;104071;1264;60771;-66
2023/06/29 09:48:30;;;;;;;3.90;3.50;;;;;;;20.83;100.00;98561.18;103842;1275;73449;-62
2023/06/29 09:51:00;;;;;;;3.50;3.10;;;;;;;21.01;100.00;98561.73;104140;1269;70158;-64
2023/06/29 09:53:32;;;;;;;3.50;3.20;;;;;;;21.15;100.00;98558.02;103856;1261;73453;-63
2023/06/29 09:55:59;;;;;;;3.60;3.20;;;;;;;21.41;100.00;98553.39;103999;1262;61697;-64
2023/06/29 09:58:28;;;;;;;3.60;3.10;;;;;;;21.54;100.00;98546.11;103915;1276;59967;-63
2023/06/29 10:00:58;;;;;;;3.40;3.10;;;;;;;21.54;100.00;98540.63;103926;1272;72781;-63
2023/06/29 10:03:27;;;;;;;3.60;3.20;;;;;;;21.35;100.00;98539.73;104156;1265;69669;-64
2023/06/29 10:05:57;;;;;;;3.10;2.80;;;;;;;21.36;100.00;98540.27;103973;1263;73128;-63
2023/06/29 10:08:24;;;;;;;2.70;2.50;;;;;;;21.40;100.00;98540.77;104034;1263;62217;-63
2023/06/29 10:10:56;;;;;;;3.00;2.80;;;;;;;21.52;100.00;98537.60;104069;1269;60780;-63
2023/06/29 10:13:24;;;;;;;5.70;2.60;;;;;;;21.63;100.00;98527.72;105631;1260;73833;-63
2023/06/29 10:15:51;;;;;;;3.00;2.80;;;;;;;21.80;100.00;98518.73;108454;1252;69387;-63
2023/06/29 10:18:31;;;;;;;2.90;2.50;;;;;;;21.98;100.00;98517.91;104995;1254;73247;-62
2023/06/29 10:20:59;;;;;;;2.50;2.30;;;;;;;22.10;100.00;98513.70;104792;1264;61944;-64
2023/06/29 10:23:26;;;;;;;;;;;;;;;22.14;100.00;98503.31;104411;1257;59863;-62
2023/06/29 10:25:53;;;;;;;2.70;2.50;;;;;;;22.23;100.00;98502.30;104762;1253;72826;-64
2023/06/29 10:28:20;;;;;;;2.10;2.00;;;;;;;22.29;100.00;98501.91;104491;1267;69278;-62
2023/06/29 10:30:48;;;;;;;2.40;2.20;;;;;;;22.42;100.00;98489.27;104339;1262;72509;-64
2023/06/29 10:33:20;;;;;;;;;;;;;;;22.60;100.00;98491.91;104659;1259;62161;-64
2023/06/29 10:35:54;;;;;;;1.80;1.70;;;;;;;22.66;100.00;98489.61;104741;1257;61014;-62
2023/06/29 10:38:27;;;;;;;2.30;2.10;;;;;;;22.61;100.00;98480.59;104641;1258;72873;-66
2023/06/29 10:40:54;;;;;;;2.90;2.20;;;;;;;22.64;100.00;98483.89;104482;1259;70049;-60
2023/06/29 10:43:21;;;;;;;2.10;2.00;;;;;;;22.78;100.00;98487.08;104737;1256;73242;-61
2023/06/29 10:45:48;;;;;;;2.80;1.80;;;;;;;22.94;100.00;98483.98;104314;1268;61723;-61
2023/06/29 10:48:16;;;;;;;4.40;2.00;;;;;;;23.06;100.00;98478.95;104921;1255;59995;-63
2023/06/29 10:51:01;;;;;;;2.10;1.90;;;;;;;23.17;100.00;98478.17;104725;1257;73499;-61
2023/06/29 10:53:29;;;;;;;3.70;2.00;;;;;;;23.19;100.00;98475.13;104419;1258;68522;-65
2023/06/29 10:55:57;;;;;;;7.80;2.10;;;;;;;23.22;100.00;98469.59;104645;1254;72348;-64
2023/06/29 10:58:26;;;;;;;2.30;2.10;;;;;;;23.28;100.00;98469.79;104547;1255;60008;-64
2023/06/29 11:00:53;;;;;;;6.20;2.60;;;;;;;23.35;100.00;98469.15;104500;1256;60200;-61
2023/06/29 11:03:22;;;;;;;2.30;2.20;;;;;;;23.44;100.00;98472.40;104454;1259;72710;-62
2023/06/29 11:05:51;;;;;;;2.50;2.30;;;;;;;23.39;100.00;98478.98;104336;1254;69709;-62
2023/06/29 11:08:19;;;;;;;2.30;2.20;;;;;;;23.42;100.00;98476.61;104238;1258;73104;-62
2023/06/29 11:10:47;;;;;;;5.80;2.40;;;;;;;23.63;100.00;98481.11;104733;1258;60774;-62
2023/06/29 11:13:14;;;;;;;4.30;3.00;;;;;;;23.78;100.00;98471.70;106495;1253;60199;-63
2023/06/29 11:15:41;;;;;;;2.50;2.30;;;;;;;23.85;100.00;98475.05;107980;1253;74958;-62
2023/06/29 11:18:08;;;;;;;2.60;2.30;;;;;;;23.84;100.00;98476.06;106622;1256;69234;-62
2023/06/29 11:20:38;;;;;;;3.90;2.00;;;;;;;23.77;100.00;98474.70;106104;1252;73624;-60
2023/06/29 11:23:07;;;;;;;6.30;2.90;;;;;;;23.83;100.00;98474.27;104695;1265;59764;-62
2023/06/29 11:25:34;;;;;;;3.90;2.60;;;;;;;23.79;100.00;98482.39;104755;1257;60015;-61
2023/06/29 11:28:02;;;;;;;4.30;1.90;;;;;;;23.23;100.00;98494.45;104500;1258;73371;-61
2023/06/29 11:30:29;;;;;;;3.70;1.80;;;;;;;22.68;100.00;98523.49;104647;1257;69178;-60
2023/06/29 11:32:55;;;;;;;6.40;1.90;;;;;;;21.82;100.00;98536.35;104648;1256;72511;-63
2023/06/29 11:35:23;;;;;;;6.90;1.60;;;;;;;21.62;100.00;98545.47;104772;1253;59802;-61
2023/06/29 11:37:51;;;;;;;4.20;1.40;;;;;;;21.16;100.00;98547.23;104922;1253;60377;-64
2023/06/29 11:40:20;;;;;;;5.30;1.90;;;;;;;20.60;100.00;98551.90;104875;1253;72966;-62
2023/06/29 11:42:49;;;;;;;1.80;1.70;;;;;;;20.36;100.00;98545.34;104690;1263;69336;-65
2023/06/29 11:45:16;;;;;;;2.10;2.00;;;;;;;20.30;100.00;98541.88;104669;1256;72333;-63
2023/06/29 11:47:46;;;;;;;3.00;1.90;;;;;;;20.21;100.00;98546.72;104746;1255;61680;-61
2023/06/29 11:50:15;;;;;;;4.40;2.40;;;;;;;20.12;100.00;98550.88;104964;1258;59877;-61
2023/06/29 11:52:44;;;;;;;2.30;2.10;;;;;;;20.08;100.00;98549.77;104846;1253;73598;-63
2023/06/29 11:55:12;;;;;;;4.60;2.30;;;;;;;20.15;100.00;98543.42;104486;1259;68071;-63
2023/06/29 11:57:41;;;;;;;2.60;2.30;;;;;;;20.26;100.00;98545.13;104447;1265;71805;-61
2023/06/29 12:00:29;;;;;;;2.50;2.20;;;;;;;20.32;100.00;98540.47;104377;1265;61032;-62
2023/06/29 12:02:57;;;;;;;4.10;2.80;;;;;;;20.42;100.00;98546.95;104427;1273;60791;-63
2023/06/29 12:05:28;;;;;;;3.60;2.80;;;;;;;20.67;100.00;98538.90;104861;1261;73297;-66
2023/06/29 12:08:04;;;;;;;3.10;2.80;;;;;;;21.02;100.00;98548.27;104543;1257;69087;-62
2023/06/29 12:10:36;;;;;;;3.80;2.80;;;;;;;21.32;100.00;98533.03;104940;1254;73459;-62
2023/06/29 12:13:04;;;;;;;3.70;3.20;;;;;;;21.63;100.00;98526.79;104717;1259;61865;-63
2023/06/29 12:15:32;;;;;;;3.90;3.60;;;;;;;21.93;100.00;98519.00;108391;1254;60150;-62
2023/06/29 12:18:19;;;;;;;4.00;3.10;;;;;;;22.10;100.00;98514.94;107178;1257;72917;-63
2023/06/29 12:20:47;;;;;;;5.40;2.50;;;;;;;22.25;100.00;98510.54;104711;1257;68777;-63
2023/06/29 12:23:14;;;;;;;5.50;3.00;;;;;;;22.32;100.00;98510.52;104485;1258;72360;-62
2023/06/29 12:25:46;;;;;;;3.70;2.90;;;;;;;22.33;100.00;98508.75;104504;1269;61682;-63
2023/06/29 12:28:14;;;;;;;2.90;2.60;;;;;;;22.31;100.00;98518.31;104626;1259;60548;-60
2023/06/29 12:30:43;;;;;;;2.40;2.30;;;;;;;22.24;100.00;98514.41;104331;1259;74104;-61
2023/06/29 12:33:12;;;;;;;2.10;1.90;;;;;;;22.20;100.00;98508.36;104448;1275;68278;-62
2023/06/29 12:35:39;;;;;;;3.00;2.10;;;;;;;22.17;100.00;98504.77;104341;1259;72808;-60
2023/06/29 12:38:06;;;;;;;;;;;;;;;22.04;100.00;98502.46;104355;1270;61463;-62
2023/06/29 12:40:33;;;;;;;4.70;1.80;;;;;;;21.91;100.00;98496.49;104268;1258;60821;-64
2023/06/29 12:43:01;;;;;;;1.70;1.60;;;;;;;21.77;100.00;98497.63;104456;1267;73782;-62
2023/06/29 12:45:28;;;;;;;2.00;1.90;;;;;;;21.80;100.00;98495.05;104388;1259;69475;-62
2023/06/29 12:47:55;;;;;;;4.40;1.80;;;;;;;21.85;100.00;98495.59;104347;1265;73321;-62
2023/06/29 12:50:22;;;;;;;1.90;1.80;;;;;;;21.89;100.00;98494.66;104375;1253;61699;-60
2023/06/29 12:52:49;;;;;;;2.20;2.00;;;;;;;21.91;100.00;98494.56;104883;1257;61814;-62
2023/06/29 12:55:16;;;;;;;3.00;2.50;;;;;;;22.01;100.00;98493.69;104819;1257;73458;-61
2023/06/29 12:57:44;;;;;;;4.20;2.10;;;;;;;22.10;100.00;98488.77;104627;1257;69316;-62
2023/06/29 13:00:12;;;;;;;4.10;1.80;;;;;;;22.21;100.00;98491.55;104636;1256;71535;-61
2023/06/29 13:02:39;;;;;;;4.90;2.00;;;;;;;22.17;100.00;98492.73;104516;1270;62588;-61
2023/06/29 13:05:07;;;;;;;2.40;2.20;;;;;;;22.19;100.00;98488.73;104357;1269;60040;-62
2023/06/29 13:07:35;;;;;;;;;;;;;;;22.32;100.00;98487.27;104894;1256;74555;-61
2023/06/29 13:10:03;;;;;;;4.10;2.40;;;;;;;22.48;100.00;98483.89;105011;1264;69385;-60
2023/06/29 13:12:31;;;;;;;2.70;2.30;;;;;;;22.55;100.00;98482.57;104883;1257;72943;-61
2023/06/29 13:14:58;;;;;;;3.30;2.20;;;;;;;22.57;100.00;98478.36;104278;1260;61835;-63
2023/06/29 13:17:26;;;;;;;2.70;2.50;;;;;;;22.62;100.00;98478.69;108386;1253;60168;-69
2023/06/29 13:19:52;;;;;;;7.80;2.60;;;;;;;22.64;100.00;98482.27;105290;1263;73974;-62
2023/06/29 13:22:19;;;;;;;3.40;2.90;;;;;;;22.67;100.00;98479.10;104663;1266;70310;-64
2023/06/29 13:24:46;;;;;;;4.10;2.40;;;;;;;22.62;100.00;98477.20;104611;1253;73014;-64
2023/06/29 13:27:14;;;;;;;3.10;2.30;;;;;;;22.66;100.00;98479.20;104570;1257;60458;-63
2023/06/29 13:29:41;;;;;;;2.70;2.40;;;;;;;22.83;100.00;98474.66;104604;1259;60571;-63
2023/06/29 13:32:08;;;;;;;2.10;2.00;;;;;;;23.07;100.00;98466.81;104760;1259;73658;-64
2023/06/29 13:34:35;;;;;;;4.10;2.50;;;;;;;23.33;100.00;98462.03;104659;1258;68580;-63
2023/06/29 13:37:02;;;;;;;4.10;2.70;;;;;;;23.56;100.00;98457.15;104826;1252;71370;-64
2023/06/29 13:39:30;;;;;;;2.40;2.10;;;;;;;23.73;100.00;98453.71;104719;1257;60789;-61
2023/06/29 13:41:56;;;;;;;2.60;2.10;;;;;;;23.83;100.00;98444.70;104896;1260;59825;-61
2023/06/29 13:44:23;;;;;;;3.50;2.00;;;;;;;23.89;100.00;98446.14;104692;1255;74403;-60
2023/06/29 13:46:51;;;;;;;3.70;2.30;;;;;;;23.90;100.00;98448.67;104572;1260;69897;-62
2023/06/29 13:49:18;;;;;;;2.50;2.20;;;;;;;23.99;100.00;98445.60;104856;1256;72755;-63
2023/06/29 13:51:45;;;;;;;5.20;2.10;;;;;;;24.06;100.00;98442.70;104561;1257;62399;-60
2023/06/29 13:54:15;;;;;;;2.80;2.60;;;;;;;24.09;100.00;98447.04;104917;1263;60381;-63
2023/06/29 13:56:42;;;;;;;3.30;2.30;;;;;;;24.03;100.00;98443.98;104530;1265;74427;-65
2023/06/29 13:59:09;;;;;;;2.70;2.50;;;;;;;23.94;100.00;98443.61;104671;1257;69946;-65
2023/06/29 14:01:38;;;;;;;2.80;2.50;;;;;;;23.86;100.00;98441.63;105018;1256;73072;-65
2023/06/29 14:04:07;;;;;;;2.60;2.40;;;;;;;23.86;100.00;98440.89;104708;1257;60541;-68
2023/06/29 14:06:35;;;;;;;4.20;2.10;;;;;;;24.03;100.00;98438.99;105148;1256;60567;-66
2023/06/29 14:09:02;;;;;;;3.20;2.20;;;;;;;24.21;100.00;98442.53;104944;1253;73949;-67
2023/06/29 14:11:30;;;;;;;3.00;2.30;;;;;;;24.40;100.00;98438.90;105147;1251;69361;-66
2023/06/29 14:13:57;;;;;;;2.20;1.90;;;;;;;24.54;100.00;98440.66;104532;1272;72500;-67
2023/06/29 14:16:24;;;;;;;2.50;2.30;;;;;;;24.49;100.00;98436.77;106551;1254;61897;-65
2023/06/29 14:18:52;;;;;;;2.10;2.00;;;;;;;24.40;100.00;98440.27;108036;1254;60303;-62
2023/06/29 14:21:19;;;;;;;2.50;2.30;;;;;;;24.35;100.00;98445.60;104694;1269;74140;-64
2023/06/29 14:23:46;;;;;;;1.80;1.70;;;;;;;24.27;100.00;98445.98;105331;1254;69577;-62
2023/06/29 14:26:14;;;;;;;2.30;1.70;;;;;;;24.09;100.00;98447.74;105604;1257;71382;-63
2023/06/29 14:28:41;;;;;;;2.90;1.70;;;;;;;23.93;100.00;98449.84;104523;1258;60504;-61
2023/06/29 14:31:08;;;;;;;2.60;1.90;;;;;;;23.87;100.00;98450.68;105218;1254;60452;-61
2023/06/29 14:33:34;;;;;;;5.50;1.70;;;;;;;23.80;100.00;98448.25;104866;1255;73270;-61
2023/06/29 14:36:03;;;;;;;2.10;1.90;;;;;;;23.78;100.00;98447.59;104758;1257;70330;-61
2023/06/29 14:38:30;;;;;;;5.50;1.90;;;;;;;23.81;100.00;98450.66;104538;1256;73615;-61
2023/06/29 14:40:58;;;;;;;2.00;1.90;;;;;;;23.95;100.00;98451.16;105067;1256;61111;-62
2023/06/29 14:43:26;;;;;;;2.30;2.10;;;;;;;24.10;100.00;98442.67;104759;1257;60834;-60
2023/06/29 14:45:55;;;;;;;2.40;1.70;;;;;;;24.24;100.00;98450.23;104883;1256;74591;-60
2023/06/29 14:48:23;;;;;;;2.10;1.90;;;;;;;24.26;100.00;98449.30;104955;1256;68303;-61
2023/06/29 14:50:54;;;;;;;3.30;1.80;;;;;;;24.83;100.00;98449.88;104339;1273;72984;-61
2023/06/29 14:53:21;;;;;;;2.60;1.60;;;;;;;26.43;100.00;98442.33;104671;1254;60469;-60
2023/06/29 14:55:48;;;;;;;2.70;1.40;;;;;;;27.81;100.00;98439.14;104279;1253;60570;-60
2023/06/29 14:58:15;;;;;;;2.30;1.70;;;;;;;29.07;85.93;98431.77;104456;1257;74376;-61
2023/06/29 15:00:44;;;;;;;2.20;1.90;;;;;;;30.16;77.79;98427.80;104590;1261;70305;-61
2023/06/29 15:03:11;;;;;;;2.70;1.50;;;;;;;31.11;70.05;98431.64;104837;1254;72221;-62
2023/06/29 15:05:38;;;;;;;1.80;1.70;;;;;;;31.85;63.70;98428.51;104663;1251;60668;-62
2023/06/29 15:08:05;;;;;;;1.60;1.60;;;;;;;31.75;54.79;98433.30;105002;1254;60539;-63
2023/06/29 15:10:32;;;;;;;1.50;1.40;;;;;;;30.33;56.52;98431.31;104570;1251;74128;-60
2023/06/29 15:12:59;;;;;;;4.00;1.50;;;;;;;29.29;65.02;98436.80;104400;1264;70307;-60
2023/06/29 15:15:27;;;;;;;2.20;1.50;;;;;;;28.27;69.83;98437.64;104786;1257;72894;-60
2023/06/29 15:17:54;;;;;;;2.00;1.70;;;;;;;27.97;81.29;98445.17;108376;1251;59958;-62
2023/06/29 15:20:21;;;;;;;4.40;1.60;;;;;;;28.61;77.74;98434.29;106683;1254;60071;-64
2023/06/29 15:22:47;;;;;;;1.70;1.60;;;;;;;29.40;72.10;98427.35;104862;1257;75311;-61
2023/06/29 15:25:14;;;;;;;4.60;1.50;;;;;;;30.32;70.08;98426.59;104593;1257;70456;-60
2023/06/29 15:27:41;;;;;;;1.90;1.70;;;;;;;30.69;60.36;98419.85;104368;1257;72426;-60
2023/06/29 15:30:09;;;;;;;1.90;1.60;;;;;;;30.27;62.41;98419.34;104387;1255;60568;-61
2023/06/29 15:32:36;;;;;;;4.70;1.80;;;;;;;29.71;63.12;98421.60;104622;1252;60613;-60
2023/06/29 15:35:03;;;;;;;2.10;1.90;;;;;;;29.15;64.90;98421.85;104352;1257;73435;-63
2023/06/29 15:37:32;;;;;;;1.80;1.60;;;;;;;28.67;69.04;98422.88;104445;1254;69423;-62
2023/06/29 15:40:00;;;;;;;1.80;1.70;;;;;;;28.64;68.99;98423.90;104410;1251;71341;-63
2023/06/29 15:42:28;;;;;;;2.00;1.70;;;;;;;28.56;70.17;98428.52;104367;1256;60457;-63
2023/06/29 15:44:54;;;;;;;2.20;2.10;;;;;;;28.53;68.97;98427.83;104443;1267;60772;-64
2023/06/29 15:47:22;;;;;;;3.00;2.00;;;;;;;28.40;66.68;98426.23;104499;1256;74792;-65
2023/06/29 15:49:49;;;;;;;2.50;2.30;;;;;;;28.15;65.04;98428.68;104723;1254;69560;-63
2023/06/29 15:52:16;;;;;;;2.30;2.10;;;;;;;28.61;64.57;98429.17;104436;1257;72214;-61
2023/06/29 15:54:44;;;;;;;1.80;1.50;;;;;;;28.63;62.92;98425.02;104907;1252;60586;-60
2023/06/29 15:57:11;;;;;;;2.80;1.70;;;;;;;28.11;69.99;98433.24;104678;1264;60441;-60
2023/06/29 15:59:38;;;;;;;2.00;1.90;;;;;;;27.39;74.94;98437.00;104353;1254;74160;-60
2023/06/29 16:02:06;;;;;;;1.90;1.80;;;;;;;26.73;81.52;98438.25;104689;1257;69300;-60
2023/06/29 16:04:35;;;;;;;2.30;1.90;;;;;;;26.14;86.45;98441.60;104495;1254;73466;-62
2023/06/29 16:07:01;;;;;;;3.40;1.90;;;;;;;25.56;92.00;98438.64;104773;1253;60603;-67
2023/06/29 16:09:32;;;;;;;2.80;2.20;;;;;;;25.04;98.07;98439.02;104531;1257;60534;-61
2023/06/29 16:11:59;;;;;;;2.30;2.00;;;;;;;24.63;100.00;98447.73;104439;1256;73683;-61
2023/06/29 16:14:26;;;;;;;;;;;;;;;24.34;100.00;98451.45;104324;1256;69370;-60
2023/06/29 16:16:53;;;;;;;3.90;1.90;;;;;;;24.08;100.00;98452.55;104402;1255;72373;-60
2023/06/29 16:19:20;;;;;;;3.10;1.80;;;;;;;23.85;100.00;98462.20;108430;1251;59949;-61
2023/06/29 16:21:47;;;;;;;3.50;3.20;;;;;;;23.70;100.00;98465.67;105708;1254;60452;-61
2023/06/29 16:24:14;;;;;;;4.00;2.40;;;;;;;23.49;100.00;98463.70;104797;1257;74196;-60
2023/06/29 16:26:42;;;;;;;5.00;2.70;;;;;;;23.29;100.00;98466.45;104831;1257;69863;-61
2023/06/29 16:29:09;;;;;;;3.00;2.40;;;;;;;23.18;100.00;98464.99;104621;1253;72152;-61
2023/06/29 16:31:36;;;;;;;3.90;2.50;;;;;;;23.14;100.00;98465.45;104728;1255;60457;-62
2023/06/29 16:34:03;;;;;;;5.60;3.00;;;;;;;23.14;100.00;98471.52;104767;1251;60553;-60
2023/06/29 16:36:31;;;;;;;5.80;2.70;;;;;;;23.07;100.00;98471.69;104566;1252;73307;-60
2023/06/29 16:38:58;;;;;;;2.50;2.30;;;;;;;23.01;100.00;98477.34;104579;1252;69249;-60
2023/06/29 16:41:25;;;;;;;3.90;2.60;;;;;;;22.94;100.00;98471.68;104800;1254;72307;-63
2023/06/29 16:43:52;;;;;;;2.90;2.60;;;;;;;22.84;100.00;98477.30;104415;1261;61092;-64
2023/06/29 16:46:20;;;;;;;3.00;2.60;;;;;;;22.72;100.00;98477.67;104298;1253;60347;-67
2023/06/29 16:48:57;;;;;;;4.00;2.80;;;;;;;22.61;100.00;98470.51;104353;1259;73288;-67
2023/06/29 16:51:27;;;;;;;3.90;2.70;;;;;;;22.52;100.00;98472.23;104494;1255;70194;-63
2023/06/29 16:53:55;;;;;;;2.70;2.50;;;;;;;22.39;100.00;98478.55;104767;1253;72989;-64
2023/06/29 16:56:29;;;;;;;3.80;2.60;;;;;;;22.25;100.00;98481.66;104470;1255;61945;-63
2023/06/29 16:58:56;;;;;;;2.90;2.50;;;;;;;22.12;100.00;98488.69;104645;1257;60563;-64
2023/06/29 17:01:25;;;;;;;5.10;2.80;;;;;;;22.06;100.00;98487.23;104482;1254;73689;-63
2023/06/29 17:03:52;;;;;;;3.90;2.90;;;;;;;21.99;100.00;98493.70;104548;1260;69066;-64
2023/06/29 17:06:19;;;;;;;4.50;2.30;;;;;;;21.92;100.00;98491.25;104396;1270;71281;-63
2023/06/29 17:08:46;;;;;;;4.50;2.40;;;;;;;21.88;100.00;98494.67;104460;1262;61381;-65
2023/06/29 17:11:13;;;;;;;3.80;2.40;;;;;;;21.78;100.00;98498.47;104568;1263;60431;-63
2023/06/29 17:13:40;;;;;;;4.10;2.50;;;;;;;21.65;100.00;98498.56;104699;1253;73366;-64
2023/06/29 17:16:08;;;;;;;3.70;1.90;;;;;;;21.55;100.00;98508.54;104417;1257;69619;-63
2023/06/29 17:18:35;;;;;;;2.60;2.40;;;;;;;21.49;100.00;98510.80;105575;1253;72109;-63
2023/06/29 17:21:02;;;;;;;4.60;2.40;;;;;;;21.40;100.00;98509.08;107777;1253;60572;-65
2023/06/29 17:23:29;;;;;;;4.80;2.40;;;;;;;21.34;100.00;98508.07;104629;1254;60575;-63
2023/06/29 17:25:56;;;;;;;4.80;2.30;;;;;;;21.27;100.00;98506.15;104776;1257;73217;-62
2023/06/29 17:28:27;;;;;;;2.30;2.10;;;;;;;21.22;100.00;98509.34;104819;1263;69860;-64
2023/06/29 17:30:56;;;;;;;3.50;2.00;;;;;;;21.19;100.00;98512.10;104158;1254;72702;-63
2023/06/29 17:33:22;;;;;;;3.20;2.60;;;;;;;21.18;100.00;98513.17;104582;1256;61694;-65
2023/06/29 17:35:49;;;;;;;2.40;2.20;;;;;;;21.08;100.00;98511.92;104346;1263;60538;-64
2023/06/29 17:38:16;;;;;;;4.30;2.30;;;;;;;20.97;100.00;98516.02;104409;1256;73437;-64
2023/06/29 17:40:43;;;;;;;3.50;2.10;;;;;;;20.88;100.00;98518.58;104327;1273;69965;-66
2023/06/29 17:43:10;;;;;;;2.40;2.10;;;;;;;20.77;100.00;98527.42;105120;1256;72554;-64
2023/06/29 17:45:37;;;;;;;2.50;2.30;;;;;;;20.68;100.00;98535.30;104502;1254;62259;-63
2023/06/29 17:48:08;;;;;;;2.80;2.40;;;;;;;20.55;100.00;98530.27;104722;1251;60469;-67
2023/06/29 17:50:36;;;;;;;2.70;2.50;;;;;;;20.40;100.00;98536.13;104564;1257;74385;-63
2023/06/29 17:53:02;;;;;;;6.20;2.70;;;;;;;20.28;100.00;98539.96;104476;1254;69173;-64
2023/06/29 17:55:29;;;;;;;3.50;2.70;;;;;;;20.22;100.00;98538.02;104349;1263;72440;-63
2023/06/29 17:57:57;;;;;;;;;;;;;;;20.14;100.00;98539.90;104308;1258;62687;-64
2023/06/29 18:00:24;;;;;;;2.80;2.60;;;;;;;20.08;100.00;98541.27;104340;1266;59519;-63
2023/06/29 18:02:51;;;;;;;4.30;2.70;;;;;;;20.06;100.00;98537.85;104378;1255;72626;-63
2023/06/29 18:05:18;;;;;;;6.80;2.40;;;;;;;20.05;100.00;98539.95;104428;1264;70115;-64
2023/06/29 18:07:46;;;;;;;3.00;2.60;;;;;;;20.02;100.00;98539.31;104346;1266;73388;-64
2023/06/29 18:10:13;;;;;;;3.20;2.90;;;;;;;19.95;100.00;98539.16;104525;1261;62103;-63
2023/06/29 18:12:41;;;;;;;4.50;3.10;;;;;;;19.90;100.00;98542.30;104326;1256;60449;-64
2023/06/29 18:15:09;;;;;;;6.20;3.40;;;;;;;19.81;100.00;98542.70;104409;1269;73728;-63
2023/06/29 18:17:36;;;;;;;2.90;2.50;;;;;;;19.74;100.00;98547.48;104391;1258;69525;-64
2023/06/29 18:20:04;;;;;;;3.80;2.70;;;;;;;19.74;100.00;98539.27;108505;1251;72489;-62
2023/06/29 18:22:31;;;;;;;3.30;3.00;;;;;;;19.72;100.00;98546.71;108475;1251;62443;-62
2023/06/29 18:24:58;;;;;;;3.90;3.00;;;;;;;19.73;100.00;98546.34;108443;1251;60113;-64
2023/06/29 18:27:27;;;;;;;5.00;2.80;;;;;;;19.74;100.00;98544.05;108452;1251;74268;-63
2023/06/29 18:29:54;;;;;;;3.10;2.80;;;;;;;19.73;100.00;98546.44;105134;1255;69238;-64
2023/06/29 18:32:21;;;;;;;4.00;3.20;;;;;;;19.72;100.00;98546.23;104400;1263;73083;-66
2023/06/29 18:34:48;;;;;;;4.60;2.70;;;;;;;19.76;100.00;98543.56;104370;1260;61577;-63
2023/06/29 18:37:15;;;;;;;4.20;3.10;;;;;;;19.80;100.00;98547.00;104347;1265;60970;-62
2023/06/29 18:39:42;;;;;;;3.10;2.90;;;;;;;19.79;100.00;98553.05;104383;1267;74164;-61
2023/06/29 18:42:10;;;;;;;2.60;2.40;;;;;;;19.74;100.00;98558.08;104422;1269;70153;-64
2023/06/29 18:44:37;;;;;;;5.70;3.30;;;;;;;19.73;100.00;98575.68;104506;1266;73465;-63
2023/06/29 18:47:07;;;;;;;5.70;3.30;;;;;;;19.57;100.00;98606.66;104384;1265;61949;-61
2023/06/29 18:49:36;;;;;;;8.20;4.30;;;;;;;19.32;100.00;98621.30;104336;1257;60549;-62
2023/06/29 18:52:17;;;;;;;7.30;4.10;;;;;;;19.16;100.00;98632.10;104455;1252;74037;-63
2023/06/29 18:54:44;;;;;;;7.70;4.00;;;;;;;19.03;100.00;98634.51;104530;1254;68328;-63
2023/06/29 18:57:11;;;;;;;2.60;2.20;;;;;;;18.89;100.00;98637.09;104550;1258;73175;-61
2023/06/29 18:59:38;;;;;;;6.50;2.30;;;;;;;18.61;100.00;98611.79;104356;1257;62017;-64
2023/06/29 19:02:06;;;;;;;3.20;2.40;;;;;;;18.51;100.00;98594.41;104338;1257;61161;-65
2023/06/29 19:04:33;;;;;;;4.40;2.70;;;;;;;18.47;100.00;98589.62;104327;1267;73865;-64
2023/06/29 19:07:00;;;;;;;4.20;2.80;;;;;;;18.44;100.00;98587.99;104545;1253;70877;-63
2023/06/29 19:09:27;;;;;;;6.00;3.20;;;;;;;18.33;100.00;98591.67;104819;1260;72339;-65
2023/06/29 19:11:55;;;;;;;3.60;2.80;;;;;;;18.23;100.00;98597.50;104551;1264;62023;-65
2023/06/29 19:14:22;;;;;;;3.00;2.70;;;;;;;18.18;100.00;98597.11;104537;1252;60462;-65
2023/06/29 19:16:50;;;;;;;3.00;2.70;;;;;;;18.17;100.00;98593.20;104294;1260;74244;-66
2023/06/29 19:19:17;;;;;;;2.80;2.60;;;;;;;18.16;100.00;98593.04;106312;1251;70092;-65
2023/06/29 19:21:44;;;;;;;3.40;3.10;;;;;;;18.11;100.00;98591.33;108492;1253;73415;-65
2023/06/29 19:24:17;;;;;;;3.40;3.10;;;;;;;18.10;100.00;98591.39;104443;1256;62087;-64
2023/06/29 19:26:44;;;;;;;3.20;3.00;;;;;;;18.14;100.00;98585.05;104708;1254;60418;-65
2023/06/29 19:29:11;;;;;;;3.70;3.20;;;;;;;18.13;100.00;98590.30;104318;1264;74561;-64
2023/06/29 19:31:39;;;;;;;;;;;;;;;18.09;100.00;98602.00;104581;1256;69784;-64
2023/06/29 19:34:09;;;;;;;9.30;3.20;;;;;;;18.06;100.00;98605.02;104279;1256;72113;-64
2023/06/29 19:36:37;;;;;;;5.00;3.40;;;;;;;18.05;100.00;98601.27;104540;1253;61882;-64